sensor_id;sensor_type;location;lat;lon;timestamp;P1;durP1;ratioP1;P2;durP2;ratioP2
16669;SDS011;8448;52.034;5.158;2023-03-01T00:02:21;15.83;;;9.13;;
16669;SDS011;8448;52.034;5.158;2023-03-01T00:04:48;14.70;;;9.17;;
16669;SDS011;8448;52.034;5.158;2023-03-01T00:07:16;14.20;;;9.03;;
16669;SDS011;8448;52.034;5.158;2023-03-01T00:09:43;17.50;;;10.17;;
16669;SDS011;8448;52.034;5.158;2023-03-01T00:12:12;14.00;;;9.07;;
16669;SDS011;8448;52.034;5.158;2023-03-01T00:14:39;14.47;;;9.40;;
16669;SDS011;8448;52.034;5.158;2023-03-01T00:17:07;13.87;;;8.80;;
16669;SDS011;8448;52.034;5.158;2023-03-01T00:19:34;17.30;;;10.00;;
16669;SDS011;8448;52.034;5.158;2023-03-01T00:22:02;18.73;;;9.53;;
16669;SDS011;8448;52.034;5.158;2023-03-01T00:24:29;15.30;;;9.13;;
16669;SDS011;8448;52.034;5.158;2023-03-01T00:26:57;14.83;;;9.77;;
16669;SDS011;8448;52.034;5.158;2023-03-01T00:29:27;15.30;;;9.10;;
16669;SDS011;8448;52.034;5.158;2023-03-01T00:31:54;17.03;;;10.23;;
16669;SDS011;8448;52.034;5.158;2023-03-01T00:34:21;14.30;;;9.70;;
16669;SDS011;8448;52.034;5.158;2023-03-01T00:36:49;15.00;;;9.30;;
16669;SDS011;8448;52.034;5.158;2023-03-01T00:39:16;16.67;;;9.67;;
16669;SDS011;8448;52.034;5.158;2023-03-01T00:41:44;15.40;;;8.97;;
16669;SDS011;8448;52.034;5.158;2023-03-01T01:29:49;18.40;;;10.93;;
16669;SDS011;8448;52.034;5.158;2023-03-01T01:32:18;18.70;;;11.63;;
16669;SDS011;8448;52.034;5.158;2023-03-01T01:34:46;18.43;;;11.07;;
16669;SDS011;8448;52.034;5.158;2023-03-01T01:37:13;20.73;;;11.67;;
16669;SDS011;8448;52.034;5.158;2023-03-01T01:39:41;19.80;;;11.33;;
16669;SDS011;8448;52.034;5.158;2023-03-01T01:42:10;18.53;;;11.27;;
16669;SDS011;8448;52.034;5.158;2023-03-01T01:44:40;18.93;;;11.73;;
16669;SDS011;8448;52.034;5.158;2023-03-01T01:47:12;18.83;;;11.50;;
16669;SDS011;8448;52.034;5.158;2023-03-01T01:49:41;17.87;;;11.33;;
16669;SDS011;8448;52.034;5.158;2023-03-01T01:52:11;20.23;;;12.37;;
16669;SDS011;8448;52.034;5.158;2023-03-01T01:54:43;20.13;;;12.10;;
16669;SDS011;8448;52.034;5.158;2023-03-01T01:57:13;20.67;;;12.40;;
16669;SDS011;8448;52.034;5.158;2023-03-01T01:59:43;21.37;;;12.03;;
16669;SDS011;8448;52.034;5.158;2023-03-01T02:02:13;21.57;;;12.53;;
16669;SDS011;8448;52.034;5.158;2023-03-01T02:04:41;20.40;;;12.63;;
16669;SDS011;8448;52.034;5.158;2023-03-01T02:07:10;22.20;;;13.10;;
16669;SDS011;8448;52.034;5.158;2023-03-01T02:09:43;21.77;;;12.63;;
16669;SDS011;8448;52.034;5.158;2023-03-01T02:12:13;21.93;;;12.77;;
16669;SDS011;8448;52.034;5.158;2023-03-01T02:14:41;22.93;;;13.10;;
16669;SDS011;8448;52.034;5.158;2023-03-01T02:17:08;23.33;;;13.57;;
16669;SDS011;8448;52.034;5.158;2023-03-01T02:19:41;21.13;;;13.20;;
16669;SDS011;8448;52.034;5.158;2023-03-01T02:22:17;23.50;;;13.20;;
16669;SDS011;8448;52.034;5.158;2023-03-01T02:24:49;22.53;;;13.70;;
16669;SDS011;8448;52.034;5.158;2023-03-01T02:27:28;22.73;;;13.40;;
16669;SDS011;8448;52.034;5.158;2023-03-01T02:30:00;22.37;;;13.40;;
16669;SDS011;8448;52.034;5.158;2023-03-01T02:32:28;22.73;;;12.87;;
16669;SDS011;8448;52.034;5.158;2023-03-01T02:34:56;23.03;;;13.83;;
16669;SDS011;8448;52.034;5.158;2023-03-01T02:37:23;23.03;;;13.53;;
16669;SDS011;8448;52.034;5.158;2023-03-01T02:39:52;21.53;;;13.03;;
16669;SDS011;8448;52.034;5.158;2023-03-01T02:42:23;24.00;;;14.33;;
16669;SDS011;8448;52.034;5.158;2023-03-01T02:44:54;25.50;;;15.07;;
16669;SDS011;8448;52.034;5.158;2023-03-01T02:47:23;24.73;;;13.73;;
16669;SDS011;8448;52.034;5.158;2023-03-01T02:49:50;25.03;;;14.50;;
16669;SDS011;8448;52.034;5.158;2023-03-01T02:52:34;23.50;;;13.63;;
16669;SDS011;8448;52.034;5.158;2023-03-01T02:55:07;23.77;;;14.27;;
16669;SDS011;8448;52.034;5.158;2023-03-01T02:57:37;22.33;;;13.53;;
16669;SDS011;8448;52.034;5.158;2023-03-01T03:00:06;23.13;;;13.73;;
16669;SDS011;8448;52.034;5.158;2023-03-01T03:02:37;21.80;;;13.90;;
16669;SDS011;8448;52.034;5.158;2023-03-01T03:05:10;21.37;;;13.63;;
16669;SDS011;8448;52.034;5.158;2023-03-01T03:07:40;24.80;;;14.30;;
16669;SDS011;8448;52.034;5.158;2023-03-01T03:10:09;22.53;;;13.90;;
16669;SDS011;8448;52.034;5.158;2023-03-01T03:12:38;23.00;;;13.97;;
16669;SDS011;8448;52.034;5.158;2023-03-01T03:15:07;23.30;;;14.20;;
16669;SDS011;8448;52.034;5.158;2023-03-01T03:17:40;26.10;;;14.00;;
16669;SDS011;8448;52.034;5.158;2023-03-01T03:20:09;23.67;;;14.43;;
16669;SDS011;8448;52.034;5.158;2023-03-01T03:22:44;23.57;;;13.73;;
16669;SDS011;8448;52.034;5.158;2023-03-01T03:25:12;22.20;;;13.23;;
16669;SDS011;8448;52.034;5.158;2023-03-01T03:27:40;23.47;;;14.03;;
16669;SDS011;8448;52.034;5.158;2023-03-01T03:30:10;23.07;;;13.80;;
16669;SDS011;8448;52.034;5.158;2023-03-01T03:32:40;23.03;;;13.53;;
16669;SDS011;8448;52.034;5.158;2023-03-01T03:35:15;27.60;;;13.70;;
16669;SDS011;8448;52.034;5.158;2023-03-01T03:37:43;22.43;;;13.37;;
16669;SDS011;8448;52.034;5.158;2023-03-01T03:40:29;23.80;;;13.77;;
16669;SDS011;8448;52.034;5.158;2023-03-01T03:42:59;22.97;;;13.57;;
16669;SDS011;8448;52.034;5.158;2023-03-01T03:45:26;22.57;;;13.07;;
16669;SDS011;8448;52.034;5.158;2023-03-01T03:47:55;23.00;;;13.77;;
16669;SDS011;8448;52.034;5.158;2023-03-01T03:50:22;23.23;;;13.20;;
16669;SDS011;8448;52.034;5.158;2023-03-01T03:52:50;24.23;;;13.47;;
16669;SDS011;8448;52.034;5.158;2023-03-01T03:55:18;22.83;;;13.90;;
16669;SDS011;8448;52.034;5.158;2023-03-01T03:57:45;24.90;;;13.50;;
16669;SDS011;8448;52.034;5.158;2023-03-01T04:00:17;22.60;;;13.43;;
16669;SDS011;8448;52.034;5.158;2023-03-01T04:02:45;21.83;;;13.03;;
16669;SDS011;8448;52.034;5.158;2023-03-01T04:05:16;22.17;;;13.43;;
16669;SDS011;8448;52.034;5.158;2023-03-01T04:07:44;22.03;;;13.17;;
16669;SDS011;8448;52.034;5.158;2023-03-01T04:10:13;21.43;;;12.93;;
16669;SDS011;8448;52.034;5.158;2023-03-01T04:12:42;22.23;;;13.40;;
16669;SDS011;8448;52.034;5.158;2023-03-01T04:15:10;21.83;;;13.13;;
16669;SDS011;8448;52.034;5.158;2023-03-01T04:17:41;23.47;;;13.63;;
16669;SDS011;8448;52.034;5.158;2023-03-01T04:20:10;21.67;;;13.13;;
16669;SDS011;8448;52.034;5.158;2023-03-01T04:22:40;23.97;;;13.53;;
16669;SDS011;8448;52.034;5.158;2023-03-01T04:25:07;22.23;;;13.50;;
16669;SDS011;8448;52.034;5.158;2023-03-01T04:27:39;22.93;;;13.53;;
16669;SDS011;8448;52.034;5.158;2023-03-01T04:30:07;23.87;;;13.70;;
16669;SDS011;8448;52.034;5.158;2023-03-01T04:32:35;23.80;;;13.10;;
16669;SDS011;8448;52.034;5.158;2023-03-01T04:35:03;23.97;;;14.17;;
16669;SDS011;8448;52.034;5.158;2023-03-01T04:37:31;21.73;;;13.13;;
16669;SDS011;8448;52.034;5.158;2023-03-01T04:40:02;23.90;;;13.40;;
16669;SDS011;8448;52.034;5.158;2023-03-01T04:42:41;22.60;;;13.40;;
16669;SDS011;8448;52.034;5.158;2023-03-01T04:45:08;23.83;;;13.77;;
16669;SDS011;8448;52.034;5.158;2023-03-01T04:47:38;24.23;;;13.60;;
16669;SDS011;8448;52.034;5.158;2023-03-01T04:50:07;23.40;;;13.93;;
16669;SDS011;8448;52.034;5.158;2023-03-01T04:52:35;22.90;;;13.50;;
16669;SDS011;8448;52.034;5.158;2023-03-01T04:55:04;23.07;;;14.00;;
16669;SDS011;8448;52.034;5.158;2023-03-01T04:57:34;26.77;;;14.17;;
16669;SDS011;8448;52.034;5.158;2023-03-01T05:00:02;23.30;;;13.17;;
16669;SDS011;8448;52.034;5.158;2023-03-01T05:02:45;21.67;;;13.50;;
16669;SDS011;8448;52.034;5.158;2023-03-01T05:05:18;24.73;;;13.83;;
16669;SDS011;8448;52.034;5.158;2023-03-01T05:07:51;22.37;;;13.10;;
16669;SDS011;8448;52.034;5.158;2023-03-01T05:10:20;21.60;;;13.33;;
16669;SDS011;8448;52.034;5.158;2023-03-01T05:12:48;21.67;;;12.97;;
16669;SDS011;8448;52.034;5.158;2023-03-01T05:15:17;22.50;;;13.60;;
16669;SDS011;8448;52.034;5.158;2023-03-01T05:17:46;23.53;;;13.27;;
16669;SDS011;8448;52.034;5.158;2023-03-01T05:20:14;22.90;;;13.57;;
16669;SDS011;8448;52.034;5.158;2023-03-01T05:22:42;26.90;;;13.30;;
16669;SDS011;8448;52.034;5.158;2023-03-01T05:25:09;23.33;;;13.27;;
16669;SDS011;8448;52.034;5.158;2023-03-01T05:27:40;23.17;;;13.73;;
16669;SDS011;8448;52.034;5.158;2023-03-01T05:30:08;25.03;;;13.97;;
16669;SDS011;8448;52.034;5.158;2023-03-01T05:32:40;23.63;;;13.83;;
16669;SDS011;8448;52.034;5.158;2023-03-01T05:35:10;23.87;;;13.50;;
16669;SDS011;8448;52.034;5.158;2023-03-01T05:37:39;23.83;;;13.63;;
16669;SDS011;8448;52.034;5.158;2023-03-01T05:40:08;23.90;;;13.97;;
16669;SDS011;8448;52.034;5.158;2023-03-01T05:42:42;23.07;;;13.20;;
16669;SDS011;8448;52.034;5.158;2023-03-01T05:45:10;22.73;;;13.37;;
16669;SDS011;8448;52.034;5.158;2023-03-01T05:47:38;24.50;;;13.33;;
16669;SDS011;8448;52.034;5.158;2023-03-01T05:50:10;21.53;;;13.03;;
16669;SDS011;8448;52.034;5.158;2023-03-01T05:52:38;24.23;;;16.17;;
16669;SDS011;8448;52.034;5.158;2023-03-01T05:55:06;23.40;;;14.67;;
16669;SDS011;8448;52.034;5.158;2023-03-01T05:57:34;24.27;;;13.63;;
16669;SDS011;8448;52.034;5.158;2023-03-01T06:00:03;23.13;;;16.27;;
16669;SDS011;8448;52.034;5.158;2023-03-01T06:02:37;21.80;;;13.87;;
16669;SDS011;8448;52.034;5.158;2023-03-01T06:05:05;24.90;;;14.17;;
16669;SDS011;8448;52.034;5.158;2023-03-01T06:07:34;23.38;;;15.85;;
16669;SDS011;8448;52.034;5.158;2023-03-01T06:10:01;22.57;;;13.87;;
16669;SDS011;8448;52.034;5.158;2023-03-01T06:12:30;22.97;;;13.50;;
16669;SDS011;8448;52.034;5.158;2023-03-01T06:14:58;22.87;;;13.00;;
16669;SDS011;8448;52.034;5.158;2023-03-01T06:17:28;22.43;;;13.10;;
16669;SDS011;8448;52.034;5.158;2023-03-01T06:19:56;23.23;;;12.97;;
16669;SDS011;8448;52.034;5.158;2023-03-01T06:22:23;25.27;;;12.53;;
16669;SDS011;8448;52.034;5.158;2023-03-01T06:24:51;22.43;;;13.17;;
16669;SDS011;8448;52.034;5.158;2023-03-01T06:27:18;21.60;;;12.60;;
16669;SDS011;8448;52.034;5.158;2023-03-01T06:29:46;23.40;;;13.07;;
16669;SDS011;8448;52.034;5.158;2023-03-01T06:32:13;22.70;;;13.10;;
16669;SDS011;8448;52.034;5.158;2023-03-01T06:34:42;23.33;;;13.53;;
16669;SDS011;8448;52.034;5.158;2023-03-01T06:37:10;23.40;;;12.93;;
16669;SDS011;8448;52.034;5.158;2023-03-01T06:39:37;22.63;;;13.07;;
16669;SDS011;8448;52.034;5.158;2023-03-01T06:42:05;22.00;;;12.73;;
16669;SDS011;8448;52.034;5.158;2023-03-01T06:44:35;22.13;;;13.30;;
16669;SDS011;8448;52.034;5.158;2023-03-01T06:47:02;23.80;;;12.83;;
16669;SDS011;8448;52.034;5.158;2023-03-01T06:49:29;24.70;;;13.50;;
16669;SDS011;8448;52.034;5.158;2023-03-01T06:51:58;22.83;;;13.23;;
16669;SDS011;8448;52.034;5.158;2023-03-01T06:54:26;22.97;;;12.90;;
16669;SDS011;8448;52.034;5.158;2023-03-01T06:56:53;21.67;;;12.57;;
16669;SDS011;8448;52.034;5.158;2023-03-01T06:59:20;24.07;;;13.10;;
16669;SDS011;8448;52.034;5.158;2023-03-01T07:01:47;22.77;;;12.87;;
16669;SDS011;8448;52.034;5.158;2023-03-01T07:04:15;22.87;;;12.50;;
16669;SDS011;8448;52.034;5.158;2023-03-01T07:06:42;20.27;;;12.03;;
16669;SDS011;8448;52.034;5.158;2023-03-01T07:09:11;22.17;;;13.07;;
16669;SDS011;8448;52.034;5.158;2023-03-01T07:11:38;20.70;;;12.73;;
16669;SDS011;8448;52.034;5.158;2023-03-01T07:14:06;24.90;;;12.90;;
16669;SDS011;8448;52.034;5.158;2023-03-01T07:16:33;22.17;;;12.93;;
16669;SDS011;8448;52.034;5.158;2023-03-01T07:19:00;20.67;;;12.57;;
16669;SDS011;8448;52.034;5.158;2023-03-01T07:21:28;22.87;;;12.30;;
16669;SDS011;8448;52.034;5.158;2023-03-01T07:23:55;21.40;;;12.00;;
16669;SDS011;8448;52.034;5.158;2023-03-01T07:26:24;20.77;;;12.37;;
16669;SDS011;8448;52.034;5.158;2023-03-01T07:28:51;21.87;;;12.27;;
16669;SDS011;8448;52.034;5.158;2023-03-01T07:31:18;22.83;;;12.80;;
16669;SDS011;8448;52.034;5.158;2023-03-01T07:33:46;22.73;;;12.33;;
16669;SDS011;8448;52.034;5.158;2023-03-01T07:36:13;22.33;;;12.63;;
16669;SDS011;8448;52.034;5.158;2023-03-01T07:38:40;21.33;;;12.20;;
16669;SDS011;8448;52.034;5.158;2023-03-01T07:41:08;20.53;;;11.77;;
16669;SDS011;8448;52.034;5.158;2023-03-01T07:43:36;22.67;;;11.53;;
16669;SDS011;8448;52.034;5.158;2023-03-01T07:46:04;23.43;;;12.00;;
16669;SDS011;8448;52.034;5.158;2023-03-01T07:48:32;21.47;;;12.00;;
16669;SDS011;8448;52.034;5.158;2023-03-01T07:51:00;21.93;;;12.47;;
16669;SDS011;8448;52.034;5.158;2023-03-01T07:53:28;21.23;;;12.10;;
16669;SDS011;8448;52.034;5.158;2023-03-01T07:56:00;21.73;;;12.63;;
16669;SDS011;8448;52.034;5.158;2023-03-01T07:58:28;20.30;;;12.10;;
16669;SDS011;8448;52.034;5.158;2023-03-01T08:01:02;21.07;;;12.50;;
16669;SDS011;8448;52.034;5.158;2023-03-01T08:03:30;22.93;;;12.83;;
16669;SDS011;8448;52.034;5.158;2023-03-01T08:05:58;22.53;;;12.57;;
16669;SDS011;8448;52.034;5.158;2023-03-01T08:08:26;20.97;;;12.10;;
16669;SDS011;8448;52.034;5.158;2023-03-01T08:10:55;22.23;;;12.23;;
16669;SDS011;8448;52.034;5.158;2023-03-01T08:13:23;21.10;;;11.83;;
16669;SDS011;8448;52.034;5.158;2023-03-01T08:15:51;19.77;;;12.40;;
16669;SDS011;8448;52.034;5.158;2023-03-01T08:18:20;22.13;;;13.50;;
16669;SDS011;8448;52.034;5.158;2023-03-01T08:20:48;19.73;;;11.73;;
16669;SDS011;8448;52.034;5.158;2023-03-01T08:23:15;17.67;;;11.33;;
16669;SDS011;8448;52.034;5.158;2023-03-01T08:25:43;19.07;;;11.20;;
16669;SDS011;8448;52.034;5.158;2023-03-01T08:28:11;14.20;;;9.90;;
16669;SDS011;8448;52.034;5.158;2023-03-01T08:30:38;16.27;;;9.90;;
16669;SDS011;8448;52.034;5.158;2023-03-01T08:33:06;17.57;;;9.33;;
16669;SDS011;8448;52.034;5.158;2023-03-01T08:35:35;13.97;;;8.97;;
16669;SDS011;8448;52.034;5.158;2023-03-01T08:38:02;13.47;;;8.37;;
16669;SDS011;8448;52.034;5.158;2023-03-01T08:40:30;12.63;;;7.93;;
16669;SDS011;8448;52.034;5.158;2023-03-01T08:42:57;14.27;;;8.00;;
16669;SDS011;8448;52.034;5.158;2023-03-01T08:45:25;17.90;;;8.10;;
16669;SDS011;8448;52.034;5.158;2023-03-01T08:47:53;12.33;;;8.13;;
16669;SDS011;8448;52.034;5.158;2023-03-01T08:50:20;13.53;;;7.00;;
16669;SDS011;8448;52.034;5.158;2023-03-01T08:52:50;11.20;;;7.30;;
16669;SDS011;8448;52.034;5.158;2023-03-01T08:55:18;9.93;;;7.10;;
16669;SDS011;8448;52.034;5.158;2023-03-01T08:57:45;11.13;;;7.33;;
16669;SDS011;8448;52.034;5.158;2023-03-01T09:00:13;11.20;;;7.03;;
16669;SDS011;8448;52.034;5.158;2023-03-01T09:02:42;10.07;;;6.60;;
16669;SDS011;8448;52.034;5.158;2023-03-01T09:05:10;9.70;;;6.77;;
16669;SDS011;8448;52.034;5.158;2023-03-01T09:07:37;9.17;;;6.37;;
16669;SDS011;8448;52.034;5.158;2023-03-01T09:10:07;9.47;;;6.13;;
16669;SDS011;8448;52.034;5.158;2023-03-01T09:12:35;10.83;;;6.40;;
16669;SDS011;8448;52.034;5.158;2023-03-01T09:15:03;9.93;;;6.60;;
16669;SDS011;8448;52.034;5.158;2023-03-01T09:17:31;11.37;;;5.87;;
16669;SDS011;8448;52.034;5.158;2023-03-01T09:19:58;10.20;;;6.30;;
16669;SDS011;8448;52.034;5.158;2023-03-01T09:22:26;9.90;;;6.73;;
16669;SDS011;8448;52.034;5.158;2023-03-01T09:24:55;11.47;;;6.67;;
16669;SDS011;8448;52.034;5.158;2023-03-01T09:27:25;9.30;;;6.67;;
16669;SDS011;8448;52.034;5.158;2023-03-01T09:29:53;10.60;;;6.60;;
16669;SDS011;8448;52.034;5.158;2023-03-01T09:32:21;9.43;;;6.43;;
16669;SDS011;8448;52.034;5.158;2023-03-01T09:34:48;9.40;;;6.33;;
16669;SDS011;8448;52.034;5.158;2023-03-01T09:37:29;8.30;;;5.90;;
16669;SDS011;8448;52.034;5.158;2023-03-01T09:39:58;8.93;;;6.23;;
16669;SDS011;8448;52.034;5.158;2023-03-01T09:42:27;8.30;;;5.47;;
16669;SDS011;8448;52.034;5.158;2023-03-01T09:44:57;7.77;;;5.20;;
16669;SDS011;8448;52.034;5.158;2023-03-01T09:47:29;6.57;;;4.70;;
16669;SDS011;8448;52.034;5.158;2023-03-01T09:49:59;8.93;;;5.40;;
16669;SDS011;8448;52.034;5.158;2023-03-01T09:52:33;6.27;;;4.70;;
16669;SDS011;8448;52.034;5.158;2023-03-01T09:55:04;6.97;;;4.67;;
16669;SDS011;8448;52.034;5.158;2023-03-01T09:57:38;8.87;;;5.07;;
16669;SDS011;8448;52.034;5.158;2023-03-01T10:00:13;7.53;;;4.90;;
16669;SDS011;8448;52.034;5.158;2023-03-01T10:02:55;7.57;;;4.63;;
16669;SDS011;8448;52.034;5.158;2023-03-01T10:05:29;6.33;;;4.40;;
16669;SDS011;8448;52.034;5.158;2023-03-01T10:08:06;7.20;;;4.10;;
16669;SDS011;8448;52.034;5.158;2023-03-01T10:11:01;8.10;;;5.10;;
16669;SDS011;8448;52.034;5.158;2023-03-01T10:13:33;6.43;;;4.63;;
16669;SDS011;8448;52.034;5.158;2023-03-01T10:16:05;7.50;;;5.00;;
16669;SDS011;8448;52.034;5.158;2023-03-01T10:18:38;8.37;;;4.60;;
16669;SDS011;8448;52.034;5.158;2023-03-01T10:21:09;7.87;;;5.00;;
16669;SDS011;8448;52.034;5.158;2023-03-01T10:23:41;8.63;;;4.70;;
16669;SDS011;8448;52.034;5.158;2023-03-01T10:26:12;5.67;;;4.80;;
16669;SDS011;8448;52.034;5.158;2023-03-01T10:28:50;9.43;;;4.80;;
16669;SDS011;8448;52.034;5.158;2023-03-01T10:31:24;6.77;;;4.70;;
16669;SDS011;8448;52.034;5.158;2023-03-01T10:33:54;6.20;;;4.30;;
16669;SDS011;8448;52.034;5.158;2023-03-01T10:36:24;6.23;;;4.40;;
16669;SDS011;8448;52.034;5.158;2023-03-01T10:38:52;6.30;;;4.30;;
16669;SDS011;8448;52.034;5.158;2023-03-01T10:41:22;4.63;;;3.50;;
16669;SDS011;8448;52.034;5.158;2023-03-01T10:43:52;5.93;;;3.70;;
16669;SDS011;8448;52.034;5.158;2023-03-01T10:46:22;7.33;;;4.20;;
16669;SDS011;8448;52.034;5.158;2023-03-01T10:51:40;6.20;;;4.00;;
16669;SDS011;8448;52.034;5.158;2023-03-01T10:54:15;5.40;;;4.20;;
16669;SDS011;8448;52.034;5.158;2023-03-01T10:56:48;6.67;;;4.23;;
16669;SDS011;8448;52.034;5.158;2023-03-01T10:59:28;7.53;;;4.50;;
16669;SDS011;8448;52.034;5.158;2023-03-01T11:02:01;6.20;;;4.07;;
16669;SDS011;8448;52.034;5.158;2023-03-01T11:04:30;6.80;;;4.00;;
16669;SDS011;8448;52.034;5.158;2023-03-01T11:06:58;6.37;;;4.43;;
16669;SDS011;8448;52.034;5.158;2023-03-01T11:09:29;7.20;;;4.60;;
16669;SDS011;8448;52.034;5.158;2023-03-01T11:12:03;7.55;;;5.63;;
16669;SDS011;8448;52.034;5.158;2023-03-01T11:14:35;7.22;;;4.40;;
16669;SDS011;8448;52.034;5.158;2023-03-01T11:17:04;5.32;;;4.05;;
16669;SDS011;8448;52.034;5.158;2023-03-01T11:19:39;6.15;;;4.45;;
16669;SDS011;8448;52.034;5.158;2023-03-01T11:22:07;7.00;;;4.47;;
16669;SDS011;8448;52.034;5.158;2023-03-01T11:24:40;5.50;;;4.18;;
16669;SDS011;8448;52.034;5.158;2023-03-01T11:27:15;5.30;;;3.78;;
16669;SDS011;8448;52.034;5.158;2023-03-01T11:29:47;6.25;;;4.30;;
16669;SDS011;8448;52.034;5.158;2023-03-01T11:32:18;6.10;;;4.40;;
16669;SDS011;8448;52.034;5.158;2023-03-01T11:34:47;5.50;;;3.88;;
16669;SDS011;8448;52.034;5.158;2023-03-01T11:37:21;7.00;;;4.07;;
16669;SDS011;8448;52.034;5.158;2023-03-01T11:39:54;6.47;;;4.05;;
16669;SDS011;8448;52.034;5.158;2023-03-01T11:42:28;5.22;;;3.75;;
16669;SDS011;8448;52.034;5.158;2023-03-01T11:45:02;4.68;;;3.55;;
16669;SDS011;8448;52.034;5.158;2023-03-01T11:47:38;5.07;;;3.90;;
16669;SDS011;8448;52.034;5.158;2023-03-01T11:50:26;4.50;;;3.72;;
16669;SDS011;8448;52.034;5.158;2023-03-01T11:52:59;5.32;;;4.00;;
16669;SDS011;8448;52.034;5.158;2023-03-01T11:55:36;5.45;;;3.70;;
16669;SDS011;8448;52.034;5.158;2023-03-01T11:58:20;4.97;;;3.72;;
16669;SDS011;8448;52.034;5.158;2023-03-01T12:01:00;5.10;;;3.40;;
16669;SDS011;8448;52.034;5.158;2023-03-01T12:03:38;6.82;;;3.30;;
16669;SDS011;8448;52.034;5.158;2023-03-01T12:09:12;4.40;;;3.40;;
16669;SDS011;8448;52.034;5.158;2023-03-01T12:11:54;4.50;;;3.40;;
16669;SDS011;8448;52.034;5.158;2023-03-01T12:14:34;3.95;;;2.95;;
16669;SDS011;8448;52.034;5.158;2023-03-01T12:17:19;4.78;;;3.20;;
16669;SDS011;8448;52.034;5.158;2023-03-01T12:19:56;4.97;;;3.20;;
16669;SDS011;8448;52.034;5.158;2023-03-01T12:22:50;3.83;;;3.00;;
16669;SDS011;8448;52.034;5.158;2023-03-01T12:25:29;4.90;;;3.22;;
16669;SDS011;8448;52.034;5.158;2023-03-01T12:28:13;4.68;;;3.40;;
16669;SDS011;8448;52.034;5.158;2023-03-01T12:30:58;4.68;;;3.63;;
16669;SDS011;8448;52.034;5.158;2023-03-01T12:33:35;4.72;;;3.20;;
16669;SDS011;8448;52.034;5.158;2023-03-01T12:36:18;4.63;;;3.47;;
16669;SDS011;8448;52.034;5.158;2023-03-01T12:38:59;3.72;;;3.22;;
16669;SDS011;8448;52.034;5.158;2023-03-01T12:41:41;3.85;;;3.00;;
16669;SDS011;8448;52.034;5.158;2023-03-01T12:44:15;5.72;;;3.15;;
16669;SDS011;8448;52.034;5.158;2023-03-01T12:46:59;4.82;;;3.38;;
16669;SDS011;8448;52.034;5.158;2023-03-01T12:49:35;6.82;;;4.03;;
16669;SDS011;8448;52.034;5.158;2023-03-01T12:52:09;5.78;;;4.18;;
16669;SDS011;8448;52.034;5.158;2023-03-01T12:54:37;6.55;;;4.18;;
16669;SDS011;8448;52.034;5.158;2023-03-01T12:57:07;4.68;;;3.85;;
16669;SDS011;8448;52.034;5.158;2023-03-01T12:59:39;4.28;;;3.80;;
16669;SDS011;8448;52.034;5.158;2023-03-01T13:02:12;8.10;;;3.95;;
16669;SDS011;8448;52.034;5.158;2023-03-01T13:04:57;7.10;;;4.13;;
16669;SDS011;8448;52.034;5.158;2023-03-01T13:07:34;5.28;;;3.88;;
16669;SDS011;8448;52.034;5.158;2023-03-01T13:10:11;5.45;;;4.20;;
16669;SDS011;8448;52.034;5.158;2023-03-01T13:15:37;4.35;;;3.90;;
16669;SDS011;8448;52.034;5.158;2023-03-01T13:20:56;5.28;;;4.03;;
16669;SDS011;8448;52.034;5.158;2023-03-01T13:23:26;3.85;;;3.40;;
16669;SDS011;8448;52.034;5.158;2023-03-01T13:28:47;5.15;;;3.55;;
16669;SDS011;8448;52.034;5.158;2023-03-01T13:34:42;4.50;;;3.70;;
16669;SDS011;8448;52.034;5.158;2023-03-01T13:37:22;6.63;;;4.70;;
16669;SDS011;8448;52.034;5.158;2023-03-01T13:39:54;4.70;;;3.80;;
16669;SDS011;8448;52.034;5.158;2023-03-01T13:42:37;4.43;;;3.45;;
16669;SDS011;8448;52.034;5.158;2023-03-01T13:45:17;4.50;;;3.95;;
16669;SDS011;8448;52.034;5.158;2023-03-01T13:48:00;4.00;;;3.60;;
16669;SDS011;8448;52.034;5.158;2023-03-01T13:50:32;7.07;;;3.72;;
16669;SDS011;8448;52.034;5.158;2023-03-01T13:53:05;5.10;;;3.50;;
16669;SDS011;8448;52.034;5.158;2023-03-01T13:55:36;5.75;;;4.03;;
16669;SDS011;8448;52.034;5.158;2023-03-01T13:58:14;5.95;;;4.10;;
16669;SDS011;8448;52.034;5.158;2023-03-01T14:00:45;5.05;;;3.83;;
16669;SDS011;8448;52.034;5.158;2023-03-01T14:03:13;5.72;;;4.20;;
16669;SDS011;8448;52.034;5.158;2023-03-01T14:05:42;5.18;;;4.40;;
16669;SDS011;8448;52.034;5.158;2023-03-01T14:08:22;4.90;;;4.13;;
16669;SDS011;8448;52.034;5.158;2023-03-01T14:10:54;6.05;;;3.72;;
16669;SDS011;8448;52.034;5.158;2023-03-01T14:13:32;4.93;;;3.92;;
16669;SDS011;8448;52.034;5.158;2023-03-01T14:16:17;4.80;;;3.75;;
16669;SDS011;8448;52.034;5.158;2023-03-01T14:18:58;4.63;;;3.58;;
16669;SDS011;8448;52.034;5.158;2023-03-01T14:21:35;4.75;;;3.80;;
16669;SDS011;8448;52.034;5.158;2023-03-01T14:24:05;5.90;;;4.22;;
16669;SDS011;8448;52.034;5.158;2023-03-01T14:26:40;5.55;;;3.95;;
16669;SDS011;8448;52.034;5.158;2023-03-01T14:29:22;5.93;;;4.30;;
16669;SDS011;8448;52.034;5.158;2023-03-01T14:31:51;4.72;;;3.72;;
16669;SDS011;8448;52.034;5.158;2023-03-01T14:34:19;4.97;;;3.75;;
16669;SDS011;8448;52.034;5.158;2023-03-01T14:36:47;5.05;;;3.95;;
16669;SDS011;8448;52.034;5.158;2023-03-01T14:39:17;5.43;;;4.18;;
16669;SDS011;8448;52.034;5.158;2023-03-01T14:41:46;6.45;;;3.88;;
16669;SDS011;8448;52.034;5.158;2023-03-01T14:44:15;4.45;;;4.03;;
16669;SDS011;8448;52.034;5.158;2023-03-01T14:46:51;4.60;;;3.95;;
16669;SDS011;8448;52.034;5.158;2023-03-01T14:49:19;5.60;;;4.13;;
16669;SDS011;8448;52.034;5.158;2023-03-01T14:51:50;4.82;;;4.07;;
16669;SDS011;8448;52.034;5.158;2023-03-01T14:54:23;5.20;;;4.20;;
16669;SDS011;8448;52.034;5.158;2023-03-01T14:56:52;4.38;;;3.75;;
16669;SDS011;8448;52.034;5.158;2023-03-01T14:59:21;4.32;;;3.72;;
16669;SDS011;8448;52.034;5.158;2023-03-01T15:01:49;4.75;;;4.00;;
16669;SDS011;8448;52.034;5.158;2023-03-01T15:04:18;5.03;;;3.70;;
16669;SDS011;8448;52.034;5.158;2023-03-01T15:06:46;4.95;;;3.78;;
16669;SDS011;8448;52.034;5.158;2023-03-01T15:09:16;7.22;;;4.20;;
16669;SDS011;8448;52.034;5.158;2023-03-01T15:11:46;4.50;;;3.90;;
16669;SDS011;8448;52.034;5.158;2023-03-01T15:14:36;6.32;;;4.00;;
16669;SDS011;8448;52.034;5.158;2023-03-01T15:17:15;5.20;;;4.05;;
16669;SDS011;8448;52.034;5.158;2023-03-01T15:19:47;5.35;;;4.20;;
16669;SDS011;8448;52.034;5.158;2023-03-01T15:22:15;7.20;;;4.50;;
16669;SDS011;8448;52.034;5.158;2023-03-01T15:24:46;5.28;;;4.00;;
16669;SDS011;8448;52.034;5.158;2023-03-01T15:27:15;8.75;;;5.38;;
16669;SDS011;8448;52.034;5.158;2023-03-01T15:29:48;8.13;;;4.95;;
16669;SDS011;8448;52.034;5.158;2023-03-01T15:32:24;5.72;;;4.55;;
16669;SDS011;8448;52.034;5.158;2023-03-01T15:34:53;8.02;;;5.22;;
16669;SDS011;8448;52.034;5.158;2023-03-01T15:40:20;5.85;;;4.35;;
16669;SDS011;8448;52.034;5.158;2023-03-01T15:42:57;5.93;;;4.57;;
16669;SDS011;8448;52.034;5.158;2023-03-01T15:45:26;7.63;;;5.00;;
16669;SDS011;8448;52.034;5.158;2023-03-01T15:47:54;7.07;;;4.20;;
16669;SDS011;8448;52.034;5.158;2023-03-01T15:50:24;7.70;;;4.87;;
16669;SDS011;8448;52.034;5.158;2023-03-01T15:52:53;6.30;;;4.50;;
16669;SDS011;8448;52.034;5.158;2023-03-01T15:55:22;7.23;;;4.90;;
16669;SDS011;8448;52.034;5.158;2023-03-01T15:57:59;7.20;;;4.80;;
16669;SDS011;8448;52.034;5.158;2023-03-01T16:00:29;7.03;;;4.63;;
16669;SDS011;8448;52.034;5.158;2023-03-01T16:02:56;6.07;;;4.30;;
16669;SDS011;8448;52.034;5.158;2023-03-01T16:05:25;7.23;;;4.80;;
16669;SDS011;8448;52.034;5.158;2023-03-01T16:07:53;6.17;;;4.17;;
16669;SDS011;8448;52.034;5.158;2023-03-01T16:10:21;6.93;;;4.40;;
16669;SDS011;8448;52.034;5.158;2023-03-01T16:12:49;6.30;;;4.40;;
16669;SDS011;8448;52.034;5.158;2023-03-01T16:15:19;6.00;;;4.47;;
16669;SDS011;8448;52.034;5.158;2023-03-01T16:17:48;7.40;;;4.47;;